< < Back
Terminal Aerodrome Forecast


Current Version              Previous Versions:   1  2  3  4  5  6  7  8  9  

Terminal Aerodrome Forecast

030
FTUS42 KILM 251120
TAFILM
TAF
KILM 251120Z 2512/2612 VRB03KT P6SM BKN120
     FM251400 24010KT P6SM VCSH SCT040 BKN080
     FM251600 23009KT P6SM -SHRA BKN050
     FM252200 20009G15KT P6SM -RA SCT014 BKN020
     FM260200 22010KT P6SM SCT007 OVC015=



Latest METAR

583
SAUS70 KWBC 252100 RRB
MTRILM
METAR KILM 252053Z 11005KT 10SM OVC050 18/14 A2973 RMK AO2 SLP066 60000
T01830139 56039


USA.gov is the U.S. government's official web portal to all federal, state and local government web resources and services.